Hambleton, United Kingdom
Current Conditions -  °F | °C
As of 11:50 AM on Monday 20 Oct 2014 (Local Time) from EGXU Reporting Station
Broken Clouds Broken Clouds  
Wind Chill: 54°   Ceiling: 5000
Heat Index: 54°   Visibility: NA
Dew Point: 50°   Wind: 8mph
Humidity: 88%   Direction: 230°SW
Pressure: 29.85"   Gusts: NA
Location:  53.77°N, 1.17°W
Report Text: EGXU 201050Z AUTO 23007KT //// // FEW020/// BKN050/// 12/10 Q1011
Loading
Personal Weather Stations






























Interactive Weather Map
Tropical Storm Tracking
New forecast layout! Learn more

10-Day Weather Forecast

Advertisements
Track Severe Weather on mobile